sensor_id;sensor_type;location;lat;lon;timestamp;P1;durP1;ratioP1;P2;durP2;ratioP2
8323;SDS011;4199;50.802;6.772;2023-04-07T00:00:32;11.00;;;7.90;;
8323;SDS011;4199;50.802;6.772;2023-04-07T00:02:58;10.23;;;8.33;;
8323;SDS011;4199;50.802;6.772;2023-04-07T00:05:27;12.20;;;8.00;;
8323;SDS011;4199;50.802;6.772;2023-04-07T00:07:53;9.00;;;7.63;;
8323;SDS011;4199;50.802;6.772;2023-04-07T00:10:23;9.13;;;7.50;;
8323;SDS011;4199;50.802;6.772;2023-04-07T00:12:49;8.67;;;7.13;;
8323;SDS011;4199;50.802;6.772;2023-04-07T00:15:15;9.77;;;6.90;;
8323;SDS011;4199;50.802;6.772;2023-04-07T00:17:42;15.37;;;11.97;;
8323;SDS011;4199;50.802;6.772;2023-04-07T00:20:08;26.47;;;17.20;;
8323;SDS011;4199;50.802;6.772;2023-04-07T00:22:35;37.53;;;24.90;;
8323;SDS011;4199;50.802;6.772;2023-04-07T00:25:01;24.80;;;16.67;;
8323;SDS011;4199;50.802;6.772;2023-04-07T00:27:27;8.03;;;6.90;;
8323;SDS011;4199;50.802;6.772;2023-04-07T00:29:54;7.43;;;6.60;;
8323;SDS011;4199;50.802;6.772;2023-04-07T00:32:21;7.63;;;5.90;;
8323;SDS011;4199;50.802;6.772;2023-04-07T00:34:47;7.70;;;6.50;;
8323;SDS011;4199;50.802;6.772;2023-04-07T00:37:14;10.40;;;7.90;;
8323;SDS011;4199;50.802;6.772;2023-04-07T00:39:40;9.70;;;7.80;;
8323;SDS011;4199;50.802;6.772;2023-04-07T00:42:07;8.80;;;7.83;;
8323;SDS011;4199;50.802;6.772;2023-04-07T00:44:33;8.57;;;7.67;;
8323;SDS011;4199;50.802;6.772;2023-04-07T00:46:59;9.03;;;8.10;;
8323;SDS011;4199;50.802;6.772;2023-04-07T00:49:26;8.80;;;7.80;;
8323;SDS011;4199;50.802;6.772;2023-04-07T00:51:56;9.73;;;7.90;;
8323;SDS011;4199;50.802;6.772;2023-04-07T00:54:23;11.23;;;9.10;;
8323;SDS011;4199;50.802;6.772;2023-04-07T00:56:49;11.97;;;9.77;;
8323;SDS011;4199;50.802;6.772;2023-04-07T00:59:16;13.27;;;10.07;;
8323;SDS011;4199;50.802;6.772;2023-04-07T01:02:02;13.63;;;10.50;;
8323;SDS011;4199;50.802;6.772;2023-04-07T01:04:34;15.63;;;11.50;;
8323;SDS011;4199;50.802;6.772;2023-04-07T01:07:04;14.20;;;11.67;;
8323;SDS011;4199;50.802;6.772;2023-04-07T01:09:34;14.70;;;11.63;;
8323;SDS011;4199;50.802;6.772;2023-04-07T01:12:07;15.17;;;12.30;;
8323;SDS011;4199;50.802;6.772;2023-04-07T01:14:39;15.67;;;12.47;;
8323;SDS011;4199;50.802;6.772;2023-04-07T01:17:06;15.93;;;12.80;;
8323;SDS011;4199;50.802;6.772;2023-04-07T01:19:46;18.67;;;13.30;;
8323;SDS011;4199;50.802;6.772;2023-04-07T01:22:13;16.60;;;13.13;;
8323;SDS011;4199;50.802;6.772;2023-04-07T01:29:58;17.40;;;14.03;;
8323;SDS011;4199;50.802;6.772;2023-04-07T01:32:26;22.40;;;15.13;;
8323;SDS011;4199;50.802;6.772;2023-04-07T01:34:52;20.47;;;15.40;;
8323;SDS011;4199;50.802;6.772;2023-04-07T01:37:19;23.10;;;15.67;;
8323;SDS011;4199;50.802;6.772;2023-04-07T01:39:45;23.13;;;16.10;;
8323;SDS011;4199;50.802;6.772;2023-04-07T01:42:12;23.10;;;16.47;;
8323;SDS011;4199;50.802;6.772;2023-04-07T01:44:39;21.93;;;15.60;;
8323;SDS011;4199;50.802;6.772;2023-04-07T01:47:06;21.53;;;15.90;;
8323;SDS011;4199;50.802;6.772;2023-04-07T01:49:32;25.27;;;16.77;;
8323;SDS011;4199;50.802;6.772;2023-04-07T01:52:00;27.03;;;17.57;;
8323;SDS011;4199;50.802;6.772;2023-04-07T01:54:27;24.40;;;17.47;;
8323;SDS011;4199;50.802;6.772;2023-04-07T01:56:53;23.87;;;16.87;;
8323;SDS011;4199;50.802;6.772;2023-04-07T01:59:21;26.43;;;17.07;;
8323;SDS011;4199;50.802;6.772;2023-04-07T02:01:47;24.53;;;17.83;;
8323;SDS011;4199;50.802;6.772;2023-04-07T02:04:16;26.80;;;18.03;;
8323;SDS011;4199;50.802;6.772;2023-04-07T02:06:51;22.30;;;16.77;;
8323;SDS011;4199;50.802;6.772;2023-04-07T02:09:18;25.73;;;17.90;;
8323;SDS011;4199;50.802;6.772;2023-04-07T02:11:45;31.23;;;18.60;;
8323;SDS011;4199;50.802;6.772;2023-04-07T02:14:12;27.33;;;18.63;;
8323;SDS011;4199;50.802;6.772;2023-04-07T02:16:39;27.90;;;18.93;;
8323;SDS011;4199;50.802;6.772;2023-04-07T02:19:06;26.63;;;18.33;;
8323;SDS011;4199;50.802;6.772;2023-04-07T02:21:33;29.13;;;18.93;;
8323;SDS011;4199;50.802;6.772;2023-04-07T02:24:01;27.40;;;18.53;;
8323;SDS011;4199;50.802;6.772;2023-04-07T02:26:31;31.40;;;19.97;;
8323;SDS011;4199;50.802;6.772;2023-04-07T02:29:01;33.67;;;18.80;;
8323;SDS011;4199;50.802;6.772;2023-04-07T02:31:27;30.03;;;19.87;;
8323;SDS011;4199;50.802;6.772;2023-04-07T02:33:53;31.17;;;19.80;;
8323;SDS011;4199;50.802;6.772;2023-04-07T02:36:20;33.37;;;20.37;;
8323;SDS011;4199;50.802;6.772;2023-04-07T02:38:46;32.37;;;20.37;;
8323;SDS011;4199;50.802;6.772;2023-04-07T02:41:13;29.73;;;19.40;;
8323;SDS011;4199;50.802;6.772;2023-04-07T02:43:39;33.53;;;20.07;;
8323;SDS011;4199;50.802;6.772;2023-04-07T02:46:05;32.00;;;19.83;;
8323;SDS011;4199;50.802;6.772;2023-04-07T02:48:31;33.47;;;20.67;;
8323;SDS011;4199;50.802;6.772;2023-04-07T02:50:57;32.17;;;19.87;;
8323;SDS011;4199;50.802;6.772;2023-04-07T02:53:24;34.17;;;21.20;;
8323;SDS011;4199;50.802;6.772;2023-04-07T02:55:50;37.60;;;20.63;;
8323;SDS011;4199;50.802;6.772;2023-04-07T02:58:17;33.53;;;21.00;;
8323;SDS011;4199;50.802;6.772;2023-04-07T03:00:43;35.77;;;20.43;;
8323;SDS011;4199;50.802;6.772;2023-04-07T03:03:09;36.00;;;21.47;;
8323;SDS011;4199;50.802;6.772;2023-04-07T03:05:36;39.10;;;20.47;;
8323;SDS011;4199;50.802;6.772;2023-04-07T03:08:02;34.70;;;20.57;;
8323;SDS011;4199;50.802;6.772;2023-04-07T03:10:28;32.50;;;20.97;;
8323;SDS011;4199;50.802;6.772;2023-04-07T03:12:55;36.13;;;21.47;;
8323;SDS011;4199;50.802;6.772;2023-04-07T03:15:22;32.80;;;20.90;;
8323;SDS011;4199;50.802;6.772;2023-04-07T03:17:48;36.47;;;21.57;;
8323;SDS011;4199;50.802;6.772;2023-04-07T03:20:14;34.10;;;21.57;;
8323;SDS011;4199;50.802;6.772;2023-04-07T03:22:41;36.93;;;21.57;;
8323;SDS011;4199;50.802;6.772;2023-04-07T03:25:07;36.50;;;22.73;;
8323;SDS011;4199;50.802;6.772;2023-04-07T03:27:33;35.17;;;20.93;;
8323;SDS011;4199;50.802;6.772;2023-04-07T03:30:00;35.37;;;20.90;;
8323;SDS011;4199;50.802;6.772;2023-04-07T03:32:26;34.23;;;21.83;;
8323;SDS011;4199;50.802;6.772;2023-04-07T03:34:53;35.67;;;21.10;;
8323;SDS011;4199;50.802;6.772;2023-04-07T03:37:19;38.30;;;21.43;;
8323;SDS011;4199;50.802;6.772;2023-04-07T03:39:45;33.93;;;20.13;;
8323;SDS011;4199;50.802;6.772;2023-04-07T03:42:12;34.70;;;20.87;;
8323;SDS011;4199;50.802;6.772;2023-04-07T03:44:38;32.33;;;20.83;;
8323;SDS011;4199;50.802;6.772;2023-04-07T03:47:04;33.77;;;20.53;;
8323;SDS011;4199;50.802;6.772;2023-04-07T03:49:31;35.40;;;20.83;;
8323;SDS011;4199;50.802;6.772;2023-04-07T03:51:57;37.30;;;21.53;;
8323;SDS011;4199;50.802;6.772;2023-04-07T03:54:23;33.33;;;21.47;;
8323;SDS011;4199;50.802;6.772;2023-04-07T03:56:50;37.93;;;21.93;;
8323;SDS011;4199;50.802;6.772;2023-04-07T03:59:16;37.57;;;22.10;;
8323;SDS011;4199;50.802;6.772;2023-04-07T04:01:43;37.83;;;23.43;;
8323;SDS011;4199;50.802;6.772;2023-04-07T04:04:12;36.93;;;22.80;;
8323;SDS011;4199;50.802;6.772;2023-04-07T04:06:39;39.83;;;24.10;;
8323;SDS011;4199;50.802;6.772;2023-04-07T04:09:05;33.63;;;22.53;;
8323;SDS011;4199;50.802;6.772;2023-04-07T04:11:32;36.10;;;23.80;;
8323;SDS011;4199;50.802;6.772;2023-04-07T04:13:58;40.23;;;25.00;;
8323;SDS011;4199;50.802;6.772;2023-04-07T04:16:24;39.17;;;24.73;;
8323;SDS011;4199;50.802;6.772;2023-04-07T04:18:51;39.37;;;24.47;;
8323;SDS011;4199;50.802;6.772;2023-04-07T04:21:17;34.20;;;22.73;;
8323;SDS011;4199;50.802;6.772;2023-04-07T04:23:43;35.60;;;23.67;;
8323;SDS011;4199;50.802;6.772;2023-04-07T04:26:09;35.53;;;23.60;;
8323;SDS011;4199;50.802;6.772;2023-04-07T04:28:36;36.17;;;23.13;;
8323;SDS011;4199;50.802;6.772;2023-04-07T04:31:04;32.77;;;21.30;;
8323;SDS011;4199;50.802;6.772;2023-04-07T04:33:30;33.27;;;22.13;;
8323;SDS011;4199;50.802;6.772;2023-04-07T04:35:56;32.67;;;22.23;;
8323;SDS011;4199;50.802;6.772;2023-04-07T04:38:23;33.30;;;22.20;;
8323;SDS011;4199;50.802;6.772;2023-04-07T04:40:49;36.00;;;22.33;;
8323;SDS011;4199;50.802;6.772;2023-04-07T04:43:15;34.20;;;22.87;;
8323;SDS011;4199;50.802;6.772;2023-04-07T04:45:42;32.10;;;22.33;;
8323;SDS011;4199;50.802;6.772;2023-04-07T04:48:08;34.97;;;22.73;;
8323;SDS011;4199;50.802;6.772;2023-04-07T04:50:36;34.97;;;22.50;;
8323;SDS011;4199;50.802;6.772;2023-04-07T04:53:02;35.10;;;23.43;;
8323;SDS011;4199;50.802;6.772;2023-04-07T04:55:28;43.63;;;26.57;;
8323;SDS011;4199;50.802;6.772;2023-04-07T04:57:54;32.43;;;21.43;;
8323;SDS011;4199;50.802;6.772;2023-04-07T05:00:21;31.87;;;21.77;;
8323;SDS011;4199;50.802;6.772;2023-04-07T05:02:47;33.87;;;22.03;;
8323;SDS011;4199;50.802;6.772;2023-04-07T05:05:14;32.23;;;21.70;;
8323;SDS011;4199;50.802;6.772;2023-04-07T05:07:40;33.03;;;21.73;;
8323;SDS011;4199;50.802;6.772;2023-04-07T05:10:07;33.67;;;22.30;;
8323;SDS011;4199;50.802;6.772;2023-04-07T05:12:33;35.10;;;22.70;;
8323;SDS011;4199;50.802;6.772;2023-04-07T05:15:00;34.57;;;22.53;;
8323;SDS011;4199;50.802;6.772;2023-04-07T05:17:26;34.13;;;23.27;;
8323;SDS011;4199;50.802;6.772;2023-04-07T05:19:53;32.47;;;21.57;;
8323;SDS011;4199;50.802;6.772;2023-04-07T05:22:19;35.17;;;22.43;;
8323;SDS011;4199;50.802;6.772;2023-04-07T05:24:45;35.70;;;21.80;;
8323;SDS011;4199;50.802;6.772;2023-04-07T05:27:12;31.10;;;20.20;;
8323;SDS011;4199;50.802;6.772;2023-04-07T05:29:38;32.33;;;20.57;;
8323;SDS011;4199;50.802;6.772;2023-04-07T05:32:05;28.47;;;19.33;;
8323;SDS011;4199;50.802;6.772;2023-04-07T05:34:31;29.13;;;20.33;;
8323;SDS011;4199;50.802;6.772;2023-04-07T05:36:57;31.23;;;19.53;;
8323;SDS011;4199;50.802;6.772;2023-04-07T05:39:24;31.20;;;19.23;;
8323;SDS011;4199;50.802;6.772;2023-04-07T05:41:50;30.80;;;19.87;;
8323;SDS011;4199;50.802;6.772;2023-04-07T05:44:17;28.93;;;19.47;;
8323;SDS011;4199;50.802;6.772;2023-04-07T05:46:43;28.27;;;19.87;;
8323;SDS011;4199;50.802;6.772;2023-04-07T05:49:09;31.77;;;19.87;;
8323;SDS011;4199;50.802;6.772;2023-04-07T05:51:45;29.67;;;19.77;;
8323;SDS011;4199;50.802;6.772;2023-04-07T05:54:14;36.87;;;23.27;;
8323;SDS011;4199;50.802;6.772;2023-04-07T05:56:40;26.83;;;18.23;;
8323;SDS011;4199;50.802;6.772;2023-04-07T05:59:07;26.10;;;17.80;;
8323;SDS011;4199;50.802;6.772;2023-04-07T06:01:34;27.70;;;18.33;;
8323;SDS011;4199;50.802;6.772;2023-04-07T06:04:00;29.33;;;17.90;;
8323;SDS011;4199;50.802;6.772;2023-04-07T06:06:28;29.43;;;18.37;;
8323;SDS011;4199;50.802;6.772;2023-04-07T06:08:55;30.03;;;18.40;;
8323;SDS011;4199;50.802;6.772;2023-04-07T06:11:21;27.57;;;17.70;;
8323;SDS011;4199;50.802;6.772;2023-04-07T06:13:48;28.47;;;18.37;;
8323;SDS011;4199;50.802;6.772;2023-04-07T06:16:15;27.43;;;17.83;;
8323;SDS011;4199;50.802;6.772;2023-04-07T06:18:44;25.03;;;16.37;;
8323;SDS011;4199;50.802;6.772;2023-04-07T06:21:10;30.00;;;17.70;;
8323;SDS011;4199;50.802;6.772;2023-04-07T06:23:36;26.07;;;16.50;;
8323;SDS011;4199;50.802;6.772;2023-04-07T06:26:03;22.90;;;16.17;;
8323;SDS011;4199;50.802;6.772;2023-04-07T06:28:29;23.53;;;15.67;;
8323;SDS011;4199;50.802;6.772;2023-04-07T06:30:55;24.63;;;15.93;;
8323;SDS011;4199;50.802;6.772;2023-04-07T06:33:24;25.07;;;16.60;;
8323;SDS011;4199;50.802;6.772;2023-04-07T06:35:50;25.73;;;16.03;;
8323;SDS011;4199;50.802;6.772;2023-04-07T06:38:17;22.27;;;15.90;;
8323;SDS011;4199;50.802;6.772;2023-04-07T06:40:44;23.57;;;16.50;;
8323;SDS011;4199;50.802;6.772;2023-04-07T06:43:10;26.00;;;17.40;;
8323;SDS011;4199;50.802;6.772;2023-04-07T06:45:36;30.17;;;16.43;;
8323;SDS011;4199;50.802;6.772;2023-04-07T06:48:03;28.67;;;17.33;;
8323;SDS011;4199;50.802;6.772;2023-04-07T06:50:30;25.13;;;16.47;;
8323;SDS011;4199;50.802;6.772;2023-04-07T06:52:56;25.33;;;15.97;;
8323;SDS011;4199;50.802;6.772;2023-04-07T06:55:22;26.77;;;17.43;;
8323;SDS011;4199;50.802;6.772;2023-04-07T06:57:49;27.20;;;18.13;;
8323;SDS011;4199;50.802;6.772;2023-04-07T07:00:17;22.10;;;14.60;;
8323;SDS011;4199;50.802;6.772;2023-04-07T07:02:44;17.73;;;11.30;;
8323;SDS011;4199;50.802;6.772;2023-04-07T07:05:10;15.73;;;10.97;;
8323;SDS011;4199;50.802;6.772;2023-04-07T07:07:37;14.23;;;9.57;;
8323;SDS011;4199;50.802;6.772;2023-04-07T07:10:03;10.50;;;8.40;;
8323;SDS011;4199;50.802;6.772;2023-04-07T07:12:29;11.40;;;7.93;;
8323;SDS011;4199;50.802;6.772;2023-04-07T07:14:56;12.30;;;7.87;;
8323;SDS011;4199;50.802;6.772;2023-04-07T07:17:22;10.13;;;6.70;;
8323;SDS011;4199;50.802;6.772;2023-04-07T07:19:49;11.27;;;6.80;;
8323;SDS011;4199;50.802;6.772;2023-04-07T07:22:15;8.87;;;6.87;;
8323;SDS011;4199;50.802;6.772;2023-04-07T07:24:41;10.57;;;6.87;;
8323;SDS011;4199;50.802;6.772;2023-04-07T07:27:08;11.03;;;7.40;;
8323;SDS011;4199;50.802;6.772;2023-04-07T07:29:34;11.93;;;7.67;;
8323;SDS011;4199;50.802;6.772;2023-04-07T07:32:00;11.47;;;7.10;;
8323;SDS011;4199;50.802;6.772;2023-04-07T07:34:26;14.30;;;8.10;;
8323;SDS011;4199;50.802;6.772;2023-04-07T07:36:53;11.67;;;7.27;;
8323;SDS011;4199;50.802;6.772;2023-04-07T07:39:19;9.57;;;6.70;;
8323;SDS011;4199;50.802;6.772;2023-04-07T07:41:45;9.33;;;6.83;;
8323;SDS011;4199;50.802;6.772;2023-04-07T07:44:12;8.63;;;5.60;;
8323;SDS011;4199;50.802;6.772;2023-04-07T07:46:38;8.63;;;5.80;;
8323;SDS011;4199;50.802;6.772;2023-04-07T07:49:04;11.20;;;6.17;;
8323;SDS011;4199;50.802;6.772;2023-04-07T07:51:31;11.00;;;5.73;;
8323;SDS011;4199;50.802;6.772;2023-04-07T07:53:57;8.67;;;5.90;;
8323;SDS011;4199;50.802;6.772;2023-04-07T07:56:23;9.87;;;7.00;;
8323;SDS011;4199;50.802;6.772;2023-04-07T07:58:49;11.43;;;7.77;;
8323;SDS011;4199;50.802;6.772;2023-04-07T08:01:16;11.33;;;6.67;;
8323;SDS011;4199;50.802;6.772;2023-04-07T08:03:42;9.23;;;6.50;;
8323;SDS011;4199;50.802;6.772;2023-04-07T08:06:09;9.70;;;6.80;;
8323;SDS011;4199;50.802;6.772;2023-04-07T08:08:35;10.03;;;6.93;;
8323;SDS011;4199;50.802;6.772;2023-04-07T08:11:02;8.83;;;7.20;;
8323;SDS011;4199;50.802;6.772;2023-04-07T08:13:28;11.53;;;7.87;;
8323;SDS011;4199;50.802;6.772;2023-04-07T08:15:54;9.27;;;7.57;;
8323;SDS011;4199;50.802;6.772;2023-04-07T08:18:21;10.57;;;7.50;;
8323;SDS011;4199;50.802;6.772;2023-04-07T08:20:48;12.33;;;8.27;;
8323;SDS011;4199;50.802;6.772;2023-04-07T08:23:14;12.60;;;7.63;;
8323;SDS011;4199;50.802;6.772;2023-04-07T08:25:40;11.33;;;7.40;;
8323;SDS011;4199;50.802;6.772;2023-04-07T08:28:07;11.37;;;7.90;;
8323;SDS011;4199;50.802;6.772;2023-04-07T08:30:33;11.03;;;7.33;;
8323;SDS011;4199;50.802;6.772;2023-04-07T08:32:59;10.80;;;7.13;;
8323;SDS011;4199;50.802;6.772;2023-04-07T08:35:26;11.23;;;7.33;;
8323;SDS011;4199;50.802;6.772;2023-04-07T08:37:52;8.93;;;6.37;;
8323;SDS011;4199;50.802;6.772;2023-04-07T08:40:19;13.53;;;9.67;;
8323;SDS011;4199;50.802;6.772;2023-04-07T08:42:45;7.67;;;5.87;;
8323;SDS011;4199;50.802;6.772;2023-04-07T08:45:12;7.20;;;5.63;;
8323;SDS011;4199;50.802;6.772;2023-04-07T08:47:39;9.30;;;5.90;;
8323;SDS011;4199;50.802;6.772;2023-04-07T08:50:07;8.00;;;5.93;;
8323;SDS011;4199;50.802;6.772;2023-04-07T08:52:38;8.47;;;5.77;;
8323;SDS011;4199;50.802;6.772;2023-04-07T08:55:05;8.23;;;5.80;;
8323;SDS011;4199;50.802;6.772;2023-04-07T08:57:33;8.83;;;5.87;;
8323;SDS011;4199;50.802;6.772;2023-04-07T09:00:00;8.33;;;5.30;;
8323;SDS011;4199;50.802;6.772;2023-04-07T09:02:34;8.47;;;5.43;;
8323;SDS011;4199;50.802;6.772;2023-04-07T09:05:04;9.13;;;5.70;;
8323;SDS011;4199;50.802;6.772;2023-04-07T09:07:31;8.40;;;5.90;;
8323;SDS011;4199;50.802;6.772;2023-04-07T09:09:58;10.33;;;6.00;;
8323;SDS011;4199;50.802;6.772;2023-04-07T09:12:26;6.60;;;5.10;;
8323;SDS011;4199;50.802;6.772;2023-04-07T09:14:52;9.90;;;6.00;;
8323;SDS011;4199;50.802;6.772;2023-04-07T09:17:19;8.03;;;5.77;;
8323;SDS011;4199;50.802;6.772;2023-04-07T09:19:46;7.87;;;5.73;;
8323;SDS011;4199;50.802;6.772;2023-04-07T09:22:13;10.40;;;6.40;;
8323;SDS011;4199;50.802;6.772;2023-04-07T09:24:40;9.30;;;6.70;;
8323;SDS011;4199;50.802;6.772;2023-04-07T09:27:13;40.20;;;27.20;;
8323;SDS011;4199;50.802;6.772;2023-04-07T09:29:42;10.27;;;6.13;;
8323;SDS011;4199;50.802;6.772;2023-04-07T09:32:09;10.13;;;6.00;;
8323;SDS011;4199;50.802;6.772;2023-04-07T09:34:37;7.67;;;5.93;;
8323;SDS011;4199;50.802;6.772;2023-04-07T09:37:06;10.60;;;6.60;;
8323;SDS011;4199;50.802;6.772;2023-04-07T09:39:47;10.23;;;7.13;;
8323;SDS011;4199;50.802;6.772;2023-04-07T09:42:14;10.10;;;7.33;;
8323;SDS011;4199;50.802;6.772;2023-04-07T09:44:40;10.87;;;7.37;;
8323;SDS011;4199;50.802;6.772;2023-04-07T09:47:07;15.10;;;8.80;;
8323;SDS011;4199;50.802;6.772;2023-04-07T09:49:33;12.70;;;8.47;;
8323;SDS011;4199;50.802;6.772;2023-04-07T09:52:13;13.83;;;9.37;;
8323;SDS011;4199;50.802;6.772;2023-04-07T09:54:39;12.63;;;8.77;;
8323;SDS011;4199;50.802;6.772;2023-04-07T09:57:07;12.87;;;9.13;;
8323;SDS011;4199;50.802;6.772;2023-04-07T09:59:35;15.07;;;9.60;;
8323;SDS011;4199;50.802;6.772;2023-04-07T10:02:02;13.30;;;9.17;;
8323;SDS011;4199;50.802;6.772;2023-04-07T10:04:28;12.80;;;8.90;;
8323;SDS011;4199;50.802;6.772;2023-04-07T10:06:55;14.80;;;9.47;;
8323;SDS011;4199;50.802;6.772;2023-04-07T10:09:22;13.10;;;8.80;;
8323;SDS011;4199;50.802;6.772;2023-04-07T10:11:50;14.13;;;8.80;;
8323;SDS011;4199;50.802;6.772;2023-04-07T10:14:17;13.97;;;9.43;;
8323;SDS011;4199;50.802;6.772;2023-04-07T10:16:45;15.00;;;8.77;;
8323;SDS011;4199;50.802;6.772;2023-04-07T10:19:11;11.57;;;8.23;;
8323;SDS011;4199;50.802;6.772;2023-04-07T10:21:39;14.33;;;8.63;;
8323;SDS011;4199;50.802;6.772;2023-04-07T10:27:30;13.10;;;7.97;;
8323;SDS011;4199;50.802;6.772;2023-04-07T10:30:26;12.03;;;8.00;;
8323;SDS011;4199;50.802;6.772;2023-04-07T10:33:01;12.97;;;8.37;;
8323;SDS011;4199;50.802;6.772;2023-04-07T10:35:29;8.57;;;7.03;;
8323;SDS011;4199;50.802;6.772;2023-04-07T10:38:16;11.73;;;7.40;;
8323;SDS011;4199;50.802;6.772;2023-04-07T10:40:43;10.57;;;6.70;;
8323;SDS011;4199;50.802;6.772;2023-04-07T10:43:09;6.97;;;5.90;;
8323;SDS011;4199;50.802;6.772;2023-04-07T10:48:19;8.90;;;5.53;;
8323;SDS011;4199;50.802;6.772;2023-04-07T10:53:32;8.23;;;5.80;;
8323;SDS011;4199;50.802;6.772;2023-04-07T10:56:02;9.00;;;6.20;;
8323;SDS011;4199;50.802;6.772;2023-04-07T10:58:28;8.73;;;6.10;;
8323;SDS011;4199;50.802;6.772;2023-04-07T11:03:34;14.23;;;10.33;;
8323;SDS011;4199;50.802;6.772;2023-04-07T11:06:01;9.50;;;6.27;;
8323;SDS011;4199;50.802;6.772;2023-04-07T11:08:31;10.03;;;6.67;;
8323;SDS011;4199;50.802;6.772;2023-04-07T11:10:58;11.73;;;7.10;;
8323;SDS011;4199;50.802;6.772;2023-04-07T11:13:25;9.07;;;7.03;;
8323;SDS011;4199;50.802;6.772;2023-04-07T11:15:52;9.43;;;7.10;;
8323;SDS011;4199;50.802;6.772;2023-04-07T11:18:20;10.43;;;7.00;;
8323;SDS011;4199;50.802;6.772;2023-04-07T11:20:48;9.57;;;7.13;;
8323;SDS011;4199;50.802;6.772;2023-04-07T11:23:14;9.03;;;6.87;;
8323;SDS011;4199;50.802;6.772;2023-04-07T11:25:42;10.43;;;7.67;;
8323;SDS011;4199;50.802;6.772;2023-04-07T11:28:09;9.73;;;7.50;;
8323;SDS011;4199;50.802;6.772;2023-04-07T11:30:36;14.00;;;7.90;;
8323;SDS011;4199;50.802;6.772;2023-04-07T11:33:03;10.00;;;7.77;;
8323;SDS011;4199;50.802;6.772;2023-04-07T11:35:30;10.67;;;7.90;;
8323;SDS011;4199;50.802;6.772;2023-04-07T11:37:57;11.73;;;8.20;;
8323;SDS011;4199;50.802;6.772;2023-04-07T11:40:33;11.27;;;7.67;;
8323;SDS011;4199;50.802;6.772;2023-04-07T11:43:00;12.40;;;8.00;;
8323;SDS011;4199;50.802;6.772;2023-04-07T11:45:27;13.00;;;8.27;;
8323;SDS011;4199;50.802;6.772;2023-04-07T11:47:54;11.80;;;8.70;;
8323;SDS011;4199;50.802;6.772;2023-04-07T11:50:39;13.50;;;8.47;;
8323;SDS011;4199;50.802;6.772;2023-04-07T11:53:06;13.37;;;9.00;;
8323;SDS011;4199;50.802;6.772;2023-04-07T11:55:32;12.97;;;8.67;;
8323;SDS011;4199;50.802;6.772;2023-04-07T11:58:06;12.87;;;9.47;;
8323;SDS011;4199;50.802;6.772;2023-04-07T12:00:35;15.43;;;9.07;;
8323;SDS011;4199;50.802;6.772;2023-04-07T12:03:08;12.63;;;9.00;;
8323;SDS011;4199;50.802;6.772;2023-04-07T12:05:43;16.73;;;9.30;;
8323;SDS011;4199;50.802;6.772;2023-04-07T12:08:09;15.47;;;11.13;;
8323;SDS011;4199;50.802;6.772;2023-04-07T12:10:36;13.60;;;10.10;;
8323;SDS011;4199;50.802;6.772;2023-04-07T12:13:05;15.63;;;9.90;;
8323;SDS011;4199;50.802;6.772;2023-04-07T12:15:32;18.07;;;10.60;;
8323;SDS011;4199;50.802;6.772;2023-04-07T12:17:59;15.07;;;10.30;;
8323;SDS011;4199;50.802;6.772;2023-04-07T12:20:25;16.30;;;10.60;;
8323;SDS011;4199;50.802;6.772;2023-04-07T12:22:52;15.40;;;10.60;;
8323;SDS011;4199;50.802;6.772;2023-04-07T12:25:19;15.23;;;10.67;;
8323;SDS011;4199;50.802;6.772;2023-04-07T12:27:45;17.30;;;10.27;;
8323;SDS011;4199;50.802;6.772;2023-04-07T12:30:12;15.50;;;10.03;;
8323;SDS011;4199;50.802;6.772;2023-04-07T12:32:38;15.63;;;10.20;;
8323;SDS011;4199;50.802;6.772;2023-04-07T12:35:05;17.33;;;10.10;;
8323;SDS011;4199;50.802;6.772;2023-04-07T12:37:31;13.77;;;10.03;;
8323;SDS011;4199;50.802;6.772;2023-04-07T12:39:58;15.33;;;10.03;;
8323;SDS011;4199;50.802;6.772;2023-04-07T12:42:25;14.77;;;9.03;;
8323;SDS011;4199;50.802;6.772;2023-04-07T12:44:51;18.37;;;12.77;;
8323;SDS011;4199;50.802;6.772;2023-04-07T12:47:18;13.70;;;10.50;;
8323;SDS011;4199;50.802;6.772;2023-04-07T12:49:44;13.03;;;10.00;;
8323;SDS011;4199;50.802;6.772;2023-04-07T12:52:12;13.37;;;9.20;;
8323;SDS011;4199;50.802;6.772;2023-04-07T12:54:38;15.10;;;9.73;;
8323;SDS011;4199;50.802;6.772;2023-04-07T12:57:05;13.20;;;9.63;;
8323;SDS011;4199;50.802;6.772;2023-04-07T12:59:31;13.80;;;9.47;;
8323;SDS011;4199;50.802;6.772;2023-04-07T13:01:57;14.33;;;9.70;;
8323;SDS011;4199;50.802;6.772;2023-04-07T13:04:24;14.20;;;9.70;;
8323;SDS011;4199;50.802;6.772;2023-04-07T13:06:52;13.27;;;9.30;;
8323;SDS011;4199;50.802;6.772;2023-04-07T13:09:18;13.07;;;9.87;;
8323;SDS011;4199;50.802;6.772;2023-04-07T13:11:45;15.53;;;11.00;;
8323;SDS011;4199;50.802;6.772;2023-04-07T13:14:11;13.63;;;9.97;;
8323;SDS011;4199;50.802;6.772;2023-04-07T13:16:37;15.53;;;10.73;;
8323;SDS011;4199;50.802;6.772;2023-04-07T13:19:04;18.30;;;12.70;;
8323;SDS011;4199;50.802;6.772;2023-04-07T13:21:30;12.07;;;9.87;;
8323;SDS011;4199;50.802;6.772;2023-04-07T13:24:11;13.53;;;10.37;;
8323;SDS011;4199;50.802;6.772;2023-04-07T13:26:37;15.93;;;10.20;;
8323;SDS011;4199;50.802;6.772;2023-04-07T13:29:03;16.93;;;10.53;;
8323;SDS011;4199;50.802;6.772;2023-04-07T13:31:30;13.10;;;10.13;;
8323;SDS011;4199;50.802;6.772;2023-04-07T13:33:56;16.17;;;11.03;;
8323;SDS011;4199;50.802;6.772;2023-04-07T13:36:23;15.73;;;11.60;;
8323;SDS011;4199;50.802;6.772;2023-04-07T13:38:50;15.63;;;11.07;;
8323;SDS011;4199;50.802;6.772;2023-04-07T13:41:16;16.20;;;11.17;;
8323;SDS011;4199;50.802;6.772;2023-04-07T13:43:42;16.43;;;11.27;;
8323;SDS011;4199;50.802;6.772;2023-04-07T13:46:11;15.37;;;11.03;;
8323;SDS011;4199;50.802;6.772;2023-04-07T13:48:45;13.63;;;9.40;;
8323;SDS011;4199;50.802;6.772;2023-04-07T13:51:11;13.13;;;8.93;;
8323;SDS011;4199;50.802;6.772;2023-04-07T13:53:38;12.87;;;9.07;;
8323;SDS011;4199;50.802;6.772;2023-04-07T13:56:04;10.87;;;8.57;;
8323;SDS011;4199;50.802;6.772;2023-04-07T13:58:33;8.07;;;6.93;;
8323;SDS011;4199;50.802;6.772;2023-04-07T14:01:00;8.57;;;7.17;;
8323;SDS011;4199;50.802;6.772;2023-04-07T14:03:27;10.40;;;8.53;;
8323;SDS011;4199;50.802;6.772;2023-04-07T14:05:53;9.23;;;7.20;;
8323;SDS011;4199;50.802;6.772;2023-04-07T14:08:20;7.13;;;6.43;;
8323;SDS011;4199;50.802;6.772;2023-04-07T14:10:48;7.27;;;5.80;;
8323;SDS011;4199;50.802;6.772;2023-04-07T14:13:15;8.73;;;5.93;;
8323;SDS011;4199;50.802;6.772;2023-04-07T14:15:41;8.70;;;6.33;;
8323;SDS011;4199;50.802;6.772;2023-04-07T14:18:08;8.27;;;6.50;;
8323;SDS011;4199;50.802;6.772;2023-04-07T14:20:34;7.37;;;6.17;;
8323;SDS011;4199;50.802;6.772;2023-04-07T14:23:00;7.30;;;6.00;;
8323;SDS011;4199;50.802;6.772;2023-04-07T14:25:45;7.87;;;6.47;;
8323;SDS011;4199;50.802;6.772;2023-04-07T14:28:31;10.97;;;7.07;;
8323;SDS011;4199;50.802;6.772;2023-04-07T14:30:57;9.80;;;7.03;;
8323;SDS011;4199;50.802;6.772;2023-04-07T14:33:24;11.13;;;8.87;;
8323;SDS011;4199;50.802;6.772;2023-04-07T14:35:51;12.80;;;8.97;;
8323;SDS011;4199;50.802;6.772;2023-04-07T14:38:17;15.37;;;10.20;;
8323;SDS011;4199;50.802;6.772;2023-04-07T14:40:43;13.97;;;9.93;;
8323;SDS011;4199;50.802;6.772;2023-04-07T14:43:10;15.47;;;11.63;;
8323;SDS011;4199;50.802;6.772;2023-04-07T14:45:37;13.70;;;11.73;;
8323;SDS011;4199;50.802;6.772;2023-04-07T14:48:03;12.57;;;9.77;;
8323;SDS011;4199;50.802;6.772;2023-04-07T14:50:33;13.93;;;9.10;;
8323;SDS011;4199;50.802;6.772;2023-04-07T14:53:00;9.73;;;8.50;;
8323;SDS011;4199;50.802;6.772;2023-04-07T14:55:26;11.37;;;8.00;;
8323;SDS011;4199;50.802;6.772;2023-04-07T14:57:53;10.53;;;8.30;;
8323;SDS011;4199;50.802;6.772;2023-04-07T15:00:19;10.90;;;6.83;;
8323;SDS011;4199;50.802;6.772;2023-04-07T15:02:45;8.67;;;6.27;;
8323;SDS011;4199;50.802;6.772;2023-04-07T15:05:12;8.83;;;6.57;;
8323;SDS011;4199;50.802;6.772;2023-04-07T15:07:38;7.23;;;5.80;;
8323;SDS011;4199;50.802;6.772;2023-04-07T15:10:05;7.77;;;5.80;;
8323;SDS011;4199;50.802;6.772;2023-04-07T15:12:31;6.50;;;5.70;;
8323;SDS011;4199;50.802;6.772;2023-04-07T15:14:58;6.97;;;5.97;;